Open Full Screen Window  High Contrast Mode
July 25, 2014 7:16 AM EDT
Weather Information
Wind Direction
  ---
Wind Speed
  00 kt (0 mph)
Wind Gust
  00 kt (0 mph)
Altimeter
30.11 in
Visibility
10 SM
Temperature
13° C
55° F
Dewpoint
12° C
54° F
Humidity
94%
1hr Rain Fall
00.00 in.
24hr Rain Fall
00.11 in.
Sky Condition
Clear
VFR

METAR KI69 251116Z AUTO 00000KT 10SM CLR 13/12 A3011 RMK AO1

*Background is not an actual portrayal of the airport.